Time,TemperatureF,DewpointF,PressureIn,WindDirection,WindDirectionDegrees,WindSpeedMPH,WindSpeedGustMPH,Humidity,HourlyPrecipIn,Conditions,Clouds,dailyrainin,SolarRadiationWatts/m^2,SoftwareType,DateUTC
2013-03-21 00:00:00,29.1,23.1,29.81,WSW,248,0.0,0.0,78,0.00,,,0.00,0000,Weather View 32 v70,2013-03-21 04:00:00,
2013-03-21 00:05:00,28.9,23.5,29.81,WSW,248,0.0,0.0,80,0.00,,,0.00,0000,Weather View 32 v70,2013-03-21 04:05:00,
2013-03-21 00:10:00,28.7,23.3,29.81,WSW,248,0.0,0.0,80,0.00,,,0.00,0000,Weather View 32 v70,2013-03-21 04:10:00,
2013-03-21 00:15:00,28.5,23.2,29.81,WSW,248,0.0,0.0,80,0.00,,,0.00,0000,Weather View 32 v70,2013-03-21 04:15:00,
2013-03-21 00:20:00,28.5,23.2,29.81,WSW,248,0.0,0.0,80,0.00,,,0.00,0008,Weather View 32 v70,2013-03-21 04:20:00,
2013-03-21 00:25:00,28.7,23.3,29.81,WSW,248,0.0,0.0,80,0.00,,,0.00,0000,Weather View 32 v70,2013-03-21 04:25:00,
2013-03-21 00:29:00,28.7,23.3,29.81,WSW,248,0.0,0.0,80,0.00,,,0.00,0000,Weather View 32 v70,2013-03-21 04:29:00,
2013-03-21 00:35:00,28.9,23.2,29.82,NW,315,0.0,0.0,79,0.00,,,0.00,0008,Weather View 32 v70,2013-03-21 04:35:00,
2013-03-21 00:45:00,29.0,23.6,29.82,NW,315,0.0,0.0,80,0.00,,,0.00,0000,Weather View 32 v70,2013-03-21 04:45:00,
2013-03-21 00:50:00,29.1,23.7,29.82,WSW,248,2.0,2.0,80,0.00,,,0.00,0000,Weather View 32 v70,2013-03-21 04:50:00,
2013-03-21 00:55:00,29.4,24.0,29.82,WSW,248,1.0,6.0,80,0.00,,,0.00,0000,Weather View 32 v70,2013-03-21 04:55:00,
2013-03-21 01:00:00,29.9,24.5,29.82,WSW,248,0.0,6.0,80,0.00,,,0.00,0000,Weather View 32 v70,2013-03-21 05:00:00,
2013-03-21 01:05:00,30.5,24.7,29.82,WNW,293,0.0,6.0,79,0.00,,,0.00,0000,Weather View 32 v70,2013-03-21 05:05:00,
2013-03-21 01:10:00,30.6,24.5,29.82,WNW,293,0.0,6.0,78,0.00,,,0.00,0008,Weather View 32 v70,2013-03-21 05:10:00,
2013-03-21 01:20:00,30.6,23.9,29.82,WNW,293,0.0,6.0,76,0.00,,,0.00,0008,Weather View 32 v70,2013-03-21 05:20:00,
2013-03-21 01:25:00,30.6,23.6,29.82,WNW,293,0.0,6.0,75,0.00,,,0.00,0000,Weather View 32 v70,2013-03-21 05:25:00,
2013-03-21 01:30:00,30.6,23.6,29.82,NW,315,0.0,6.0,75,0.00,,,0.00,0008,Weather View 32 v70,2013-03-21 05:30:00,
2013-03-21 01:40:00,30.5,23.5,29.82,NW,315,0.0,6.0,75,0.00,,,0.00,0000,Weather View 32 v70,2013-03-21 05:40:00,
2013-03-21 01:50:00,30.2,23.2,29.82,NW,315,0.0,6.0,75,0.00,,,0.00,0008,Weather View 32 v70,2013-03-21 05:50:00,
2013-03-21 01:55:00,30.2,23.6,29.82,NW,315,0.0,4.0,76,0.00,,,0.00,0008,Weather View 32 v70,2013-03-21 05:55:00,
2013-03-21 02:05:00,30.1,23.2,29.82,NW,315,0.0,0.0,75,0.00,,,0.00,0000,Weather View 32 v70,2013-03-21 06:05:00,
2013-03-21 02:10:00,30.1,23.5,29.82,NW,315,0.0,0.0,76,0.00,,,0.00,0000,Weather View 32 v70,2013-03-21 06:10:00,
2013-03-21 02:20:00,30.1,23.2,29.81,NW,315,0.0,0.0,75,0.00,,,0.00,0000,Weather View 32 v70,2013-03-21 06:20:00,
2013-03-21 02:30:00,30.1,23.5,29.81,NW,315,0.0,0.0,76,0.00,,,0.00,0000,Weather View 32 v70,2013-03-21 06:30:00,
2013-03-21 02:35:00,29.9,23.6,29.80,NW,315,0.0,0.0,77,0.00,,,0.00,0000,Weather View 32 v70,2013-03-21 06:35:00,
2013-03-21 02:40:00,29.8,23.4,29.79,NW,315,0.0,0.0,77,0.00,,,0.00,0000,Weather View 32 v70,2013-03-21 06:40:00,
2013-03-21 02:45:00,29.7,23.3,29.80,NW,315,0.0,0.0,77,0.00,,,0.00,0000,Weather View 32 v70,2013-03-21 06:45:00,
2013-03-21 02:55:00,29.3,23.0,29.78,NW,315,0.0,2.0,77,0.00,,,0.00,0000,Weather View 32 v70,2013-03-21 06:55:00,
2013-03-21 03:00:00,29.2,22.6,29.78,NNW,338,0.0,2.0,76,0.00,,,0.00,0000,Weather View 32 v70,2013-03-21 07:00:00,
2013-03-21 03:10:00,28.9,22.3,29.78,NNW,338,0.0,2.0,76,0.00,,,0.00,0008,Weather View 32 v70,2013-03-21 07:10:00,
2013-03-21 03:15:00,28.7,22.0,29.77,NNW,338,0.0,2.0,76,0.00,,,0.00,0000,Weather View 32 v70,2013-03-21 07:15:00,
2013-03-21 03:25:00,28.3,21.7,29.77,NNW,338,0.0,2.0,76,0.00,,,0.00,0000,Weather View 32 v70,2013-03-21 07:25:00,
2013-03-21 03:30:00,28.3,21.4,29.77,NNW,338,0.0,2.0,75,0.00,,,0.00,0000,Weather View 32 v70,2013-03-21 07:30:00,
2013-03-21 03:40:00,28.2,21.0,29.77,NNW,338,0.0,2.0,74,0.00,,,0.00,0000,Weather View 32 v70,2013-03-21 07:40:00,
2013-03-21 03:45:00,28.2,21.3,29.77,NNW,338,0.0,2.0,75,0.00,,,0.00,0000,Weather View 32 v70,2013-03-21 07:45:00,
2013-03-21 03:50:00,28.1,21.2,29.77,NNW,338,0.0,1.0,75,0.00,,,0.00,0000,Weather View 32 v70,2013-03-21 07:50:00,
2013-03-21 04:00:00,28.2,21.0,29.77,NNW,338,0.0,0.0,74,0.00,,,0.00,0000,Weather View 32 v70,2013-03-21 08:00:00,
2013-03-21 04:10:00,28.1,20.6,29.77,NNW,338,0.0,0.0,73,0.00,,,0.00,0000,Weather View 32 v70,2013-03-21 08:10:00,
2013-03-21 04:15:00,28.0,20.8,29.77,NNW,338,0.0,0.0,74,0.00,,,0.00,0000,Weather View 32 v70,2013-03-21 08:15:00,
2013-03-21 04:25:00,27.8,20.5,29.77,NNW,338,0.0,0.0,74,0.00,,,0.00,0000,Weather View 32 v70,2013-03-21 08:25:00,
2013-03-21 04:30:00,27.6,20.4,29.77,North,0,0.0,0.0,74,0.00,,,0.00,0000,Weather View 32 v70,2013-03-21 08:30:00,
2013-03-21 04:40:00,27.6,20.4,29.77,North,0,0.0,0.0,74,0.00,,,0.00,0000,Weather View 32 v70,2013-03-21 08:40:00,
2013-03-21 04:45:00,27.6,20.4,29.76,North,0,0.0,0.0,74,0.00,,,0.00,0000,Weather View 32 v70,2013-03-21 08:45:00,
2013-03-21 04:55:00,27.5,20.3,29.76,North,0,0.0,0.0,74,0.00,,,0.00,0000,Weather View 32 v70,2013-03-21 08:55:00,
2013-03-21 05:05:00,27.5,20.0,29.76,North,0,0.0,0.0,73,0.00,,,0.00,0000,Weather View 32 v70,2013-03-21 09:05:00,
2013-03-21 05:10:00,27.6,20.1,29.76,NNW,338,0.0,0.0,73,0.00,,,0.00,0000,Weather View 32 v70,2013-03-21 09:10:00,
2013-03-21 05:15:00,27.8,20.2,29.76,NNW,338,0.0,0.0,73,0.00,,,0.00,0000,Weather View 32 v70,2013-03-21 09:15:00,
2013-03-21 05:20:00,27.9,20.3,29.76,NNW,338,0.0,0.0,73,0.00,,,0.00,0000,Weather View 32 v70,2013-03-21 09:20:00,
2013-03-21 05:25:00,27.9,20.3,29.76,North,0,0.0,0.0,73,0.00,,,0.00,0000,Weather View 32 v70,2013-03-21 09:25:00,
2013-03-21 05:30:00,27.9,20.0,29.75,NNW,338,0.0,0.0,72,0.00,,,0.00,0000,Weather View 32 v70,2013-03-21 09:30:00,
2013-03-21 05:40:00,27.5,20.3,29.76,NNW,338,0.0,0.0,74,0.00,,,0.00,0000,Weather View 32 v70,2013-03-21 09:40:00,
2013-03-21 05:45:00,27.3,20.1,29.76,NNW,338,0.0,0.0,74,0.00,,,0.00,0000,Weather View 32 v70,2013-03-21 09:45:00,
2013-03-21 05:50:00,27.3,20.1,29.76,NNW,338,0.0,0.0,74,0.00,,,0.00,0000,Weather View 32 v70,2013-03-21 09:50:00,
2013-03-21 05:55:00,27.4,19.9,29.76,NNW,338,0.0,0.0,73,0.00,,,0.00,0000,Weather View 32 v70,2013-03-21 09:55:00,
2013-03-21 06:00:00,27.3,20.1,29.77,North,0,0.0,0.0,74,0.00,,,0.00,0000,Weather View 32 v70,2013-03-21 10:00:00,
2013-03-21 06:05:00,27.2,20.0,29.77,NNW,338,0.0,0.0,74,0.00,,,0.00,0000,Weather View 32 v70,2013-03-21 10:05:00,
2013-03-21 06:15:00,26.7,19.6,29.77,North,0,0.0,0.0,74,0.00,,,0.00,0000,Weather View 32 v70,2013-03-21 10:15:00,
2013-03-21 06:25:00,27.3,20.7,29.76,NNW,338,0.0,0.0,76,0.00,,,0.00,0000,Weather View 32 v70,2013-03-21 10:25:00,
2013-03-21 06:30:00,27.8,20.2,29.76,NNW,338,0.0,0.0,73,0.00,,,0.00,0000,Weather View 32 v70,2013-03-21 10:30:00,
2013-03-21 06:40:00,27.8,20.9,29.76,North,0,0.0,0.0,75,0.00,,,0.00,0000,Weather View 32 v70,2013-03-21 10:40:00,
2013-03-21 06:45:00,28.1,20.9,29.76,NW,315,0.0,0.0,74,0.00,,,0.00,0000,Weather View 32 v70,2013-03-21 10:45:00,
2013-03-21 06:55:00,28.2,21.0,29.76,NNW,338,0.0,0.0,74,0.00,,,0.00,0000,Weather View 32 v70,2013-03-21 10:55:00,
2013-03-21 07:00:00,28.2,20.7,29.76,NW,315,0.0,3.0,73,0.00,,,0.00,0000,Weather View 32 v70,2013-03-21 11:00:00,
2013-03-21 07:05:00,28.3,20.8,29.76,North,0,0.0,3.0,73,0.00,,,0.00,0008,Weather View 32 v70,2013-03-21 11:05:00,
2013-03-21 07:10:00,28.4,20.9,29.75,NNW,338,0.0,3.0,73,0.00,,,0.00,0008,Weather View 32 v70,2013-03-21 11:10:00,
2013-03-21 07:20:00,28.8,20.2,29.76,NNW,338,0.0,5.0,70,0.00,,,0.00,0024,Weather View 32 v70,2013-03-21 11:20:00,
2013-03-21 07:25:00,29.0,21.1,29.76,NNW,338,0.0,5.0,72,0.00,,,0.00,0048,Weather View 32 v70,2013-03-21 11:25:00,
2013-03-21 07:30:00,29.1,20.2,29.76,NNW,338,0.0,5.0,69,0.00,,,0.00,0064,Weather View 32 v70,2013-03-21 11:30:00,
2013-03-21 07:40:00,29.7,20.7,29.76,North,0,0.0,5.0,69,0.00,,,0.00,0080,Weather View 32 v70,2013-03-21 11:40:00,
2013-03-21 07:50:00,30.5,20.1,29.76,North,0,0.0,5.0,65,0.00,,,0.00,0160,Weather View 32 v70,2013-03-21 11:50:00,
2013-03-21 08:00:00,31.2,19.0,29.76,NNW,338,4.0,9.0,60,0.00,,,0.00,0072,Weather View 32 v70,2013-03-21 12:00:00,
2013-03-21 08:10:00,31.6,18.9,29.76,North,0,0.0,9.0,59,0.00,,,0.00,0216,Weather View 32 v70,2013-03-21 12:10:00,
2013-03-21 08:20:00,32.1,19.8,29.75,SE,135,0.0,9.0,60,0.00,,,0.00,0240,Weather View 32 v70,2013-03-21 12:20:00,
2013-03-21 08:25:00,32.3,19.1,29.75,NW,315,0.0,9.0,58,0.00,,,0.00,0208,Weather View 32 v70,2013-03-21 12:25:00,
2013-03-21 08:30:00,32.4,18.8,29.75,North,0,2.0,9.0,57,0.00,,,0.00,0224,Weather View 32 v70,2013-03-21 12:30:00,
2013-03-21 08:35:00,32.6,19.0,29.75,NNW,338,0.0,9.0,57,0.00,,,0.00,0256,Weather View 32 v70,2013-03-21 12:35:00,
2013-03-21 08:40:00,32.9,18.9,29.75,NW,315,2.0,9.0,56,0.00,,,0.00,0272,Weather View 32 v70,2013-03-21 12:40:00,
2013-03-21 08:45:00,33.3,19.3,29.75,NNW,338,0.0,9.0,56,0.00,,,0.00,0288,Weather View 32 v70,2013-03-21 12:45:00,
2013-03-21 08:50:00,33.2,17.9,29.75,NNW,338,1.0,16.0,53,0.00,,,0.00,0304,Weather View 32 v70,2013-03-21 12:50:00,
2013-03-21 09:00:00,33.5,18.6,29.74,NNW,338,0.0,16.0,54,0.00,,,0.00,0320,Weather View 32 v70,2013-03-21 13:00:00,
2013-03-21 09:10:00,34.5,19.1,29.75,North,0,4.0,16.0,53,0.00,,,0.00,0344,Weather View 32 v70,2013-03-21 13:10:00,
2013-03-21 09:15:00,34.7,18.9,29.75,North,0,5.0,16.0,52,0.00,,,0.00,0336,Weather View 32 v70,2013-03-21 13:15:00,
2013-03-21 09:25:00,35.7,19.8,29.74,North,0,3.0,16.0,52,0.00,,,0.00,0376,Weather View 32 v70,2013-03-21 13:25:00,
2013-03-21 09:30:00,36.1,19.7,29.74,NW,315,1.0,16.0,51,0.00,,,0.00,0400,Weather View 32 v70,2013-03-21 13:30:00,
2013-03-21 09:35:00,36.4,21.3,29.74,North,0,0.0,16.0,54,0.00,,,0.00,0456,Weather View 32 v70,2013-03-21 13:35:00,
2013-03-21 09:45:00,37.5,20.6,29.74,North,0,1.0,16.0,50,0.00,,,0.00,0464,Weather View 32 v70,2013-03-21 13:45:00,
2013-03-21 09:55:00,38.1,20.1,29.73,WNW,293,4.0,9.0,48,0.00,,,0.00,0360,Weather View 32 v70,2013-03-21 13:55:00,
2013-03-21 10:00:00,37.0,21.0,29.73,NNW,338,0.0,9.0,52,0.00,,,0.00,0296,Weather View 32 v70,2013-03-21 14:00:00,
2013-03-21 10:10:00,36.8,19.8,29.73,WNW,293,1.0,9.0,50,0.00,,,0.00,0528,Weather View 32 v70,2013-03-21 14:10:00,
2013-03-21 10:15:00,37.8,20.8,29.73,NNE,23,2.0,8.0,50,0.00,,,0.00,0568,Weather View 32 v70,2013-03-21 14:15:00,
2013-03-21 10:20:00,38.0,21.0,29.73,NNW,338,2.0,8.0,50,0.00,,,0.00,0576,Weather View 32 v70,2013-03-21 14:20:00,
2013-03-21 10:30:00,38.9,20.4,29.72,North,0,0.0,10.0,47,0.00,,,0.00,0616,Weather View 32 v70,2013-03-21 14:30:00,
2013-03-21 10:35:00,38.7,21.1,29.72,NNE,23,2.0,10.0,49,0.00,,,0.00,0712,Weather View 32 v70,2013-03-21 14:35:00,
2013-03-21 10:45:00,37.9,20.9,29.72,NNE,23,2.0,10.0,50,0.00,,,0.00,0488,Weather View 32 v70,2013-03-21 14:45:00,
2013-03-21 10:50:00,38.4,21.4,29.72,WNW,293,3.0,10.0,50,0.00,,,0.00,0400,Weather View 32 v70,2013-03-21 14:50:00,
2013-03-21 11:00:00,38.0,20.5,29.71,North,0,0.0,10.0,49,0.00,,,0.00,0256,Weather View 32 v70,2013-03-21 15:00:00,
2013-03-21 11:10:00,37.5,21.5,29.71,NNE,23,0.0,10.0,52,0.00,,,0.00,0312,Weather View 32 v70,2013-03-21 15:10:00,
2013-03-21 11:15:00,38.0,19.5,29.71,NNE,23,3.0,11.0,47,0.00,,,0.00,0352,Weather View 32 v70,2013-03-21 15:15:00,
2013-03-21 11:20:00,37.8,20.3,29.71,WNW,293,2.0,11.0,49,0.00,,,0.00,0280,Weather View 32 v70,2013-03-21 15:20:00,
2013-03-21 11:30:00,37.9,20.9,29.70,NW,315,1.0,11.0,50,0.00,,,0.00,0240,Weather View 32 v70,2013-03-21 15:30:00,
2013-03-21 11:35:00,38.1,20.1,29.70,NNW,338,0.0,11.0,48,0.00,,,0.00,0320,Weather View 32 v70,2013-03-21 15:35:00,
2013-03-21 11:40:00,38.0,19.5,29.70,North,0,0.0,11.0,47,0.00,,,0.00,0232,Weather View 32 v70,2013-03-21 15:40:00,
2013-03-21 11:45:00,37.7,19.7,29.70,North,0,4.0,11.0,48,0.00,,,0.00,0208,Weather View 32 v70,2013-03-21 15:45:00,
2013-03-21 11:50:00,37.3,18.9,29.70,NE,45,1.0,11.0,47,0.00,,,0.00,0232,Weather View 32 v70,2013-03-21 15:50:00,
2013-03-21 11:55:00,37.8,19.3,29.69,North,0,0.0,11.0,47,0.00,,,0.00,0480,Weather View 32 v70,2013-03-21 15:55:00,
2013-03-21 12:00:00,38.3,19.8,29.69,NNW,338,0.0,11.0,47,0.00,,,0.00,0336,Weather View 32 v70,2013-03-21 16:00:00,
2013-03-21 12:05:00,38.4,19.9,29.69,NW,315,0.0,11.0,47,0.00,,,0.00,0312,Weather View 32 v70,2013-03-21 16:05:00,
2013-03-21 12:10:00,39.0,21.9,29.68,North,0,0.0,11.0,50,0.00,,,0.00,0400,Weather View 32 v70,2013-03-21 16:10:00,
2013-03-21 12:20:00,39.2,20.1,29.68,NNE,23,0.0,10.0,46,0.00,,,0.00,0312,Weather View 32 v70,2013-03-21 16:20:00,
2013-03-21 12:30:00,37.9,19.9,29.68,NNW,338,0.0,10.0,48,0.00,,,0.00,0200,Weather View 32 v70,2013-03-21 16:30:00,
2013-03-21 12:35:00,37.8,19.8,29.67,NNE,23,4.0,10.0,48,0.00,,,0.00,0216,Weather View 32 v70,2013-03-21 16:35:00,
2013-03-21 12:40:00,37.5,21.0,29.67,NNW,338,6.0,10.0,51,0.00,,,0.00,0248,Weather View 32 v70,2013-03-21 16:40:00,
2013-03-21 12:45:00,38.0,21.9,29.67,NW,315,0.0,10.0,52,0.00,,,0.00,0344,Weather View 32 v70,2013-03-21 16:45:00,
2013-03-21 12:50:00,38.2,21.7,29.66,NNW,338,3.0,10.0,51,0.00,,,0.00,0352,Weather View 32 v70,2013-03-21 16:50:00,
2013-03-21 12:55:00,38.7,21.6,29.66,NNE,23,3.0,12.0,50,0.00,,,0.00,0448,Weather View 32 v70,2013-03-21 16:55:00,
2013-03-21 13:00:00,39.1,22.5,29.66,North,0,0.0,12.0,51,0.00,,,0.00,0480,Weather View 32 v70,2013-03-21 17:00:00,
2013-03-21 13:05:00,39.2,21.6,29.65,NNE,23,6.0,12.0,49,0.00,,,0.00,0424,Weather View 32 v70,2013-03-21 17:05:00,
2013-03-21 13:10:00,39.3,22.7,29.66,NW,315,2.0,12.0,51,0.00,,,0.00,0416,Weather View 32 v70,2013-03-21 17:10:00,
2013-03-21 13:15:00,39.5,23.3,29.65,NNE,23,3.0,12.0,52,0.00,,,0.00,0568,Weather View 32 v70,2013-03-21 17:15:00,
2013-03-21 13:20:00,39.5,21.4,29.65,NNW,338,4.0,12.0,48,0.00,,,0.00,0432,Weather View 32 v70,2013-03-21 17:20:00,
2013-03-21 13:25:00,39.0,21.4,29.65,NNW,338,0.0,12.0,49,0.00,,,0.00,0392,Weather View 32 v70,2013-03-21 17:25:00,
2013-03-21 13:30:00,39.5,21.9,29.65,NE,45,0.0,12.0,49,0.00,,,0.00,0592,Weather View 32 v70,2013-03-21 17:30:00,
2013-03-21 13:37:00,40.8,23.6,29.64,North,0,0.0,12.0,50,0.00,,,0.00,0432,Weather View 32 v70,2013-03-21 17:37:00,
2013-03-21 13:45:00,41.8,23.0,29.64,NNE,23,1.0,12.0,47,0.00,,,0.00,0816,Weather View 32 v70,2013-03-21 17:45:00,
2013-03-21 13:50:00,41.0,21.8,29.63,North,0,0.0,12.0,46,0.00,,,0.00,0432,Weather View 32 v70,2013-03-21 17:50:00,
2013-03-21 14:00:00,40.8,23.1,29.63,NE,45,3.0,12.0,49,0.00,,,0.00,0720,Weather View 32 v70,2013-03-21 18:00:00,
2013-03-21 14:10:00,41.0,21.3,29.62,North,0,4.0,12.0,45,0.00,,,0.00,0344,Weather View 32 v70,2013-03-21 18:10:00,
2013-03-21 14:15:00,40.5,21.8,29.62,NNE,23,2.0,12.0,47,0.00,,,0.00,0312,Weather View 32 v70,2013-03-21 18:15:00,
2013-03-21 14:20:00,40.8,21.6,29.62,North,0,0.0,12.0,46,0.00,,,0.00,0440,Weather View 32 v70,2013-03-21 18:20:00,
2013-03-21 14:25:00,41.1,22.4,29.61,North,0,3.0,12.0,47,0.00,,,0.00,0448,Weather View 32 v70,2013-03-21 18:25:00,
2013-03-21 14:35:00,40.8,22.1,29.61,NW,315,0.0,23.0,47,0.00,,,0.00,0216,Weather View 32 v70,2013-03-21 18:35:00,
2013-03-21 14:40:00,40.0,21.9,29.61,NNE,23,3.0,23.0,48,0.00,,,0.00,0200,Weather View 32 v70,2013-03-21 18:40:00,
2013-03-21 14:50:00,40.1,22.0,29.60,North,0,0.0,23.0,48,0.00,,,0.00,0248,Weather View 32 v70,2013-03-21 18:50:00,
2013-03-21 15:00:00,39.3,22.2,29.60,NE,45,2.0,23.0,50,0.00,,,0.00,0128,Weather View 32 v70,2013-03-21 19:00:00,
2013-03-21 15:05:00,38.9,22.3,29.60,North,0,0.0,23.0,51,0.00,,,0.00,0104,Weather View 32 v70,2013-03-21 19:05:00,
2013-03-21 15:10:00,38.8,21.7,29.60,North,0,0.0,23.0,50,0.00,,,0.00,0256,Weather View 32 v70,2013-03-21 19:10:00,
2013-03-21 15:15:00,39.2,22.6,29.60,NNW,338,4.0,23.0,51,0.00,,,0.00,0200,Weather View 32 v70,2013-03-21 19:15:00,
2013-03-21 15:25:00,40.5,23.3,29.59,NNW,338,4.0,23.0,50,0.00,,,0.00,0272,Weather View 32 v70,2013-03-21 19:25:00,
2013-03-21 15:30:00,40.0,22.4,29.59,North,0,0.0,23.0,49,0.00,,,0.00,0168,Weather View 32 v70,2013-03-21 19:30:00,
2013-03-21 15:38:00,39.5,22.3,29.59,East,90,2.0,10.0,50,0.00,,,0.00,0152,Weather View 32 v70,2013-03-21 19:38:00,
2013-03-21 15:45:00,38.7,22.5,29.58,NE,45,0.0,10.0,52,0.00,,,0.00,0064,Weather View 32 v70,2013-03-21 19:45:00,
2013-03-21 15:50:00,38.3,23.1,29.59,NNE,23,0.0,10.0,54,0.00,,,0.00,0112,Weather View 32 v70,2013-03-21 19:50:00,
2013-03-21 15:55:00,38.3,23.1,29.59,NNW,338,0.0,10.0,54,0.00,,,0.00,0072,Weather View 32 v70,2013-03-21 19:55:00,
2013-03-21 16:00:00,38.2,23.0,29.59,NW,315,0.0,10.0,54,0.00,,,0.00,0080,Weather View 32 v70,2013-03-21 20:00:00,
2013-03-21 16:10:00,37.8,22.6,29.59,NE,45,0.0,10.0,54,0.00,,,0.00,0080,Weather View 32 v70,2013-03-21 20:10:00,
2013-03-21 16:15:00,37.7,22.9,29.59,North,0,0.0,10.0,55,0.00,,,0.00,0024,Weather View 32 v70,2013-03-21 20:15:00,
2013-03-21 16:20:00,37.4,22.7,29.59,NNE,23,2.0,10.0,55,0.00,,,0.00,0016,Weather View 32 v70,2013-03-21 20:20:00,
2013-03-21 16:25:00,37.2,23.4,29.59,North,0,0.0,10.0,57,0.00,,,0.00,0032,Weather View 32 v70,2013-03-21 20:25:00,
2013-03-21 16:30:00,36.5,25.9,29.59,NNW,338,2.0,9.0,65,0.00,,,0.00,0032,Weather View 32 v70,2013-03-21 20:30:00,
2013-03-21 16:38:00,35.7,25.9,29.59,North,0,0.0,9.0,67,0.00,,,0.00,0064,Weather View 32 v70,2013-03-21 20:38:00,
2013-03-21 16:45:00,35.0,26.8,29.59,NNE,23,0.0,7.0,72,0.00,,,0.00,0072,Weather View 32 v70,2013-03-21 20:45:00,
2013-03-21 16:50:00,34.6,27.5,29.59,NE,45,0.0,7.0,75,0.00,,,0.00,0064,Weather View 32 v70,2013-03-21 20:50:00,
2013-03-21 16:55:00,34.5,27.4,29.59,North,0,3.0,7.0,75,0.00,,,0.00,0064,Weather View 32 v70,2013-03-21 20:55:00,
2013-03-21 17:00:00,34.3,27.5,29.59,North,0,0.0,7.0,76,0.00,,,0.00,0048,Weather View 32 v70,2013-03-21 21:00:00,
2013-03-21 17:10:00,34.2,28.0,29.59,NNE,23,0.0,7.0,78,0.00,,,0.00,0064,Weather View 32 v70,2013-03-21 21:10:00,
2013-03-21 17:20:00,34.1,28.2,29.59,NNW,338,0.0,7.0,79,0.00,,,0.00,0080,Weather View 32 v70,2013-03-21 21:20:00,
2013-03-21 17:30:00,33.9,28.1,29.59,NNW,338,0.0,6.0,79,0.00,,,0.00,0096,Weather View 32 v70,2013-03-21 21:30:00,
2013-03-21 17:35:00,34.1,28.5,29.59,North,0,0.0,6.0,80,0.00,,,0.00,0056,Weather View 32 v70,2013-03-21 21:35:00,
2013-03-21 17:45:00,33.8,28.3,29.59,North,0,2.0,6.0,80,0.00,,,0.00,0008,Weather View 32 v70,2013-03-21 21:45:00,
2013-03-21 17:55:00,33.6,28.1,29.59,North,0,0.0,6.0,80,0.00,,,0.00,0032,Weather View 32 v70,2013-03-21 21:55:00,
2013-03-21 18:00:00,33.6,28.1,29.59,NNW,338,0.0,6.0,80,0.00,,,0.00,0016,Weather View 32 v70,2013-03-21 22:00:00,
2013-03-21 18:10:00,33.7,27.9,29.60,North,0,0.0,6.0,79,0.00,,,0.00,0016,Weather View 32 v70,2013-03-21 22:10:00,
2013-03-21 18:20:00,33.6,26.2,29.60,NNW,338,0.0,6.0,74,0.00,,,0.00,0016,Weather View 32 v70,2013-03-21 22:20:00,
2013-03-21 18:25:00,33.6,25.5,29.60,North,0,3.0,6.0,72,0.00,,,0.00,0016,Weather View 32 v70,2013-03-21 22:25:00,
2013-03-21 18:30:00,33.6,25.5,29.60,NW,315,0.0,8.0,72,0.00,,,0.00,0024,Weather View 32 v70,2013-03-21 22:30:00,
2013-03-21 18:35:00,33.5,25.8,29.60,NW,315,0.0,8.0,73,0.00,,,0.00,0024,Weather View 32 v70,2013-03-21 22:35:00,
2013-03-21 18:40:00,33.4,25.0,29.60,NW,315,11.0,14.0,71,0.00,,,0.00,0024,Weather View 32 v70,2013-03-21 22:40:00,
2013-03-21 18:50:00,33.2,25.1,29.60,North,0,0.0,14.0,72,0.00,,,0.00,0008,Weather View 32 v70,2013-03-21 22:50:00,
2013-03-21 19:00:00,32.9,24.2,29.60,NNW,338,0.0,14.0,70,0.00,,,0.00,0008,Weather View 32 v70,2013-03-21 23:00:00,
2013-03-21 19:05:00,32.9,24.5,29.60,NNW,338,1.0,14.0,71,0.00,,,0.00,0000,Weather View 32 v70,2013-03-21 23:05:00,
2013-03-21 19:10:00,32.9,24.2,29.60,North,0,0.0,14.0,70,0.00,,,0.00,0000,Weather View 32 v70,2013-03-21 23:10:00,
2013-03-21 19:20:00,32.7,23.6,29.61,North,0,0.0,14.0,69,0.00,,,0.00,0000,Weather View 32 v70,2013-03-21 23:20:00,
2013-03-21 19:25:00,32.6,23.5,29.61,NW,315,0.0,14.0,69,0.00,,,0.00,0000,Weather View 32 v70,2013-03-21 23:25:00,
2013-03-21 19:30:00,32.5,23.4,29.61,NNW,338,0.0,14.0,69,0.00,,,0.00,0000,Weather View 32 v70,2013-03-21 23:30:00,
2013-03-21 19:35:00,32.4,23.7,29.61,NNW,338,3.0,14.0,70,0.00,,,0.00,0000,Weather View 32 v70,2013-03-21 23:35:00,
2013-03-21 19:40:00,32.3,23.9,29.61,North,0,0.0,11.0,71,0.00,,,0.00,0000,Weather View 32 v70,2013-03-21 23:40:00,
2013-03-21 19:50:00,32.3,23.9,29.61,North,0,0.0,9.0,71,0.00,,,0.00,0000,Weather View 32 v70,2013-03-21 23:50:00,
2013-03-21 19:55:00,32.3,24.2,29.61,NNW,338,0.0,9.0,72,0.00,,,0.00,0000,Weather View 32 v70,2013-03-21 23:55:00,
2013-03-21 20:00:00,32.3,24.2,29.61,NW,315,1.0,9.0,72,0.00,,,0.00,0008,Weather View 32 v70,2013-03-22 00:00:00,
2013-03-21 20:10:00,32.1,23.8,29.61,NW,315,0.0,9.0,71,0.00,,,0.00,0000,Weather View 32 v70,2013-03-22 00:10:00,
2013-03-21 20:20:00,32.1,23.8,29.61,NNW,338,0.0,9.0,71,0.00,,,0.00,0000,Weather View 32 v70,2013-03-22 00:20:00,
2013-03-21 20:25:00,32.3,24.2,29.61,North,0,0.0,4.0,72,0.00,,,0.00,0008,Weather View 32 v70,2013-03-22 00:25:00,
2013-03-21 20:30:00,32.1,24.1,29.61,NNW,338,0.0,4.0,72,0.00,,,0.00,0000,Weather View 32 v70,2013-03-22 00:30:00,
2013-03-21 20:35:00,32.1,24.1,29.61,NNW,338,0.0,4.0,72,0.00,,,0.00,0000,Weather View 32 v70,2013-03-22 00:35:00,
2013-03-21 20:40:00,32.1,24.1,29.62,NW,315,0.0,2.0,72,0.00,,,0.00,0008,Weather View 32 v70,2013-03-22 00:40:00,
2013-03-21 20:45:00,32.1,24.5,29.62,NW,315,0.0,2.0,73,0.00,,,0.00,0000,Weather View 32 v70,2013-03-22 00:45:00,
2013-03-21 20:50:00,32.0,24.7,29.62,NW,315,0.0,2.0,74,0.00,,,0.00,0000,Weather View 32 v70,2013-03-22 00:50:00,
2013-03-21 21:00:00,31.9,24.9,29.62,NW,315,0.0,3.0,75,0.00,,,0.00,0000,Weather View 32 v70,2013-03-22 01:00:00,
2013-03-21 21:10:00,31.6,25.2,29.62,NW,315,0.0,3.0,77,0.00,,,0.00,0000,Weather View 32 v70,2013-03-22 01:10:00,
2013-03-21 21:20:00,31.2,26.1,29.62,NNW,338,0.0,3.0,81,0.00,,,0.00,0008,Weather View 32 v70,2013-03-22 01:20:00,
2013-03-21 21:25:00,31.1,26.0,29.62,NNW,338,0.0,3.0,81,0.00,,,0.00,0000,Weather View 32 v70,2013-03-22 01:25:00,
2013-03-21 21:30:00,31.1,26.0,29.62,NNW,338,0.0,3.0,81,0.00,,,0.00,0000,Weather View 32 v70,2013-03-22 01:30:00,
2013-03-21 21:40:00,31.1,26.0,29.62,NNW,338,0.0,3.0,81,0.00,,,0.00,0000,Weather View 32 v70,2013-03-22 01:40:00,
2013-03-21 21:45:00,31.0,25.9,29.62,NNW,338,0.0,3.0,81,0.00,,,0.00,0000,Weather View 32 v70,2013-03-22 01:45:00,
2013-03-21 21:50:00,31.1,26.0,29.62,NNW,338,0.0,3.0,81,0.00,,,0.00,0000,Weather View 32 v70,2013-03-22 01:50:00,
2013-03-21 22:00:00,31.0,26.2,29.62,NNW,338,0.0,3.0,82,0.00,,,0.00,0008,Weather View 32 v70,2013-03-22 02:00:00,
2013-03-21 22:05:00,31.0,26.2,29.62,NE,45,0.0,3.0,82,0.00,,,0.00,0000,Weather View 32 v70,2013-03-22 02:05:00,
2013-03-21 22:15:00,30.9,26.1,29.62,NNE,23,0.0,0.0,82,0.00,,,0.00,0008,Weather View 32 v70,2013-03-22 02:15:00,
2013-03-21 22:20:00,30.9,26.3,29.62,NNW,338,0.0,0.0,83,0.00,,,0.00,0000,Weather View 32 v70,2013-03-22 02:20:00,
2013-03-21 22:30:00,30.8,26.5,29.63,NNW,338,0.0,0.0,84,0.00,,,0.00,0000,Weather View 32 v70,2013-03-22 02:30:00,
2013-03-21 22:40:00,30.8,26.5,29.62,NW,315,0.0,0.0,84,0.00,,,0.00,0000,Weather View 32 v70,2013-03-22 02:40:00,
2013-03-21 22:50:00,30.8,26.2,29.62,North,0,0.0,0.0,83,0.00,,,0.00,0000,Weather View 32 v70,2013-03-22 02:50:00,
2013-03-21 22:55:00,30.9,26.3,29.62,North,0,0.0,0.0,83,0.00,,,0.00,0000,Weather View 32 v70,2013-03-22 02:55:00,
2013-03-21 23:05:00,30.8,26.2,29.62,North,0,0.0,0.0,83,0.00,,,0.00,0000,Weather View 32 v70,2013-03-22 03:05:00,
2013-03-21 23:15:00,30.8,26.2,29.62,North,0,0.0,0.0,83,0.00,,,0.00,0000,Weather View 32 v70,2013-03-22 03:15:00,
2013-03-21 23:20:00,30.8,26.2,29.62,NW,315,0.0,0.0,83,0.00,,,0.00,0000,Weather View 32 v70,2013-03-22 03:20:00,
2013-03-21 23:25:00,30.7,26.1,29.62,NW,315,0.0,0.0,83,0.00,,,0.00,0000,Weather View 32 v70,2013-03-22 03:25:00,
2013-03-21 23:30:00,30.8,26.2,29.62,NW,315,0.0,0.0,83,0.00,,,0.00,0000,Weather View 32 v70,2013-03-22 03:30:00,
2013-03-21 23:40:00,30.7,26.1,29.62,NW,315,0.0,0.0,83,0.00,,,0.00,0000,Weather View 32 v70,2013-03-22 03:40:00,
2013-03-21 23:50:00,30.6,26.0,29.62,NW,315,0.0,0.0,83,0.00,,,0.00,0000,Weather View 32 v70,2013-03-22 03:50:00,
2013-03-21 23:55:00,30.6,25.7,29.62,West,270,0.0,0.0,82,0.00,,,0.00,0000,Weather View 32 v70,2013-03-22 03:55:00,